sensor_id;sensor_type;location;lat;lon;timestamp;P1;durP1;ratioP1;P2;durP2;ratioP2
3309;SDS011;1667;53.238;10.394;2023-05-16T00:02:06;3.70;;;2.30;;
3309;SDS011;1667;53.238;10.394;2023-05-16T00:07:05;6.50;;;2.27;;
3309;SDS011;1667;53.238;10.394;2023-05-16T00:12:03;3.47;;;1.63;;
3309;SDS011;1667;53.238;10.394;2023-05-16T00:17:04;6.27;;;1.90;;
3309;SDS011;1667;53.238;10.394;2023-05-16T00:22:07;4.57;;;3.27;;
3309;SDS011;1667;53.238;10.394;2023-05-16T00:27:07;5.30;;;2.00;;
3309;SDS011;1667;53.238;10.394;2023-05-16T00:32:07;3.23;;;2.30;;
3309;SDS011;1667;53.238;10.394;2023-05-16T00:37:06;2.20;;;1.67;;
3309;SDS011;1667;53.238;10.394;2023-05-16T00:42:05;2.30;;;2.07;;
3309;SDS011;1667;53.238;10.394;2023-05-16T00:47:04;2.20;;;2.00;;
3309;SDS011;1667;53.238;10.394;2023-05-16T00:52:04;5.17;;;2.10;;
3309;SDS011;1667;53.238;10.394;2023-05-16T00:57:03;2.53;;;2.33;;
3309;SDS011;1667;53.238;10.394;2023-05-16T01:02:04;1.60;;;1.50;;
3309;SDS011;1667;53.238;10.394;2023-05-16T01:07:04;4.10;;;1.97;;
3309;SDS011;1667;53.238;10.394;2023-05-16T01:12:06;2.07;;;1.60;;
3309;SDS011;1667;53.238;10.394;2023-05-16T01:17:12;4.33;;;2.63;;
3309;SDS011;1667;53.238;10.394;2023-05-16T01:22:19;3.00;;;1.90;;
3309;SDS011;1667;53.238;10.394;2023-05-16T01:27:29;3.30;;;1.37;;
3309;SDS011;1667;53.238;10.394;2023-05-16T01:32:30;4.70;;;2.20;;
3309;SDS011;1667;53.238;10.394;2023-05-16T01:37:29;2.77;;;1.77;;
3309;SDS011;1667;53.238;10.394;2023-05-16T01:42:36;2.23;;;1.93;;
3309;SDS011;1667;53.238;10.394;2023-05-16T01:47:40;2.07;;;1.87;;
3309;SDS011;1667;53.238;10.394;2023-05-16T01:52:44;2.37;;;2.03;;
3309;SDS011;1667;53.238;10.394;2023-05-16T01:57:48;5.90;;;1.70;;
3309;SDS011;1667;53.238;10.394;2023-05-16T02:02:48;4.03;;;1.70;;
3309;SDS011;1667;53.238;10.394;2023-05-16T02:07:47;2.77;;;1.60;;
3309;SDS011;1667;53.238;10.394;2023-05-16T02:12:46;1.77;;;1.67;;
3309;SDS011;1667;53.238;10.394;2023-05-16T02:17:46;2.47;;;1.83;;
3309;SDS011;1667;53.238;10.394;2023-05-16T02:22:44;3.90;;;2.13;;
3309;SDS011;1667;53.238;10.394;2023-05-16T02:27:45;3.73;;;1.90;;
3309;SDS011;1667;53.238;10.394;2023-05-16T02:32:46;5.57;;;1.93;;
3309;SDS011;1667;53.238;10.394;2023-05-16T02:37:45;3.70;;;1.90;;
3309;SDS011;1667;53.238;10.394;2023-05-16T02:42:44;5.17;;;2.10;;
3309;SDS011;1667;53.238;10.394;2023-05-16T02:47:44;2.60;;;1.80;;
3309;SDS011;1667;53.238;10.394;2023-05-16T02:52:44;3.03;;;1.90;;
3309;SDS011;1667;53.238;10.394;2023-05-16T02:57:42;2.10;;;1.90;;
3309;SDS011;1667;53.238;10.394;2023-05-16T03:02:41;2.40;;;2.20;;
3309;SDS011;1667;53.238;10.394;2023-05-16T03:07:40;4.60;;;3.40;;
3309;SDS011;1667;53.238;10.394;2023-05-16T03:12:40;2.67;;;2.40;;
3309;SDS011;1667;53.238;10.394;2023-05-16T03:17:39;5.83;;;2.70;;
3309;SDS011;1667;53.238;10.394;2023-05-16T03:22:37;4.70;;;2.50;;
3309;SDS011;1667;53.238;10.394;2023-05-16T03:27:36;5.23;;;2.27;;
3309;SDS011;1667;53.238;10.394;2023-05-16T03:32:36;2.93;;;1.90;;
3309;SDS011;1667;53.238;10.394;2023-05-16T03:37:34;8.40;;;2.67;;
3309;SDS011;1667;53.238;10.394;2023-05-16T03:42:33;7.67;;;2.83;;
3309;SDS011;1667;53.238;10.394;2023-05-16T03:47:31;8.73;;;2.43;;
3309;SDS011;1667;53.238;10.394;2023-05-16T03:52:32;6.73;;;1.80;;
3309;SDS011;1667;53.238;10.394;2023-05-16T03:57:31;7.70;;;1.87;;
3309;SDS011;1667;53.238;10.394;2023-05-16T04:02:30;4.27;;;1.87;;
3309;SDS011;1667;53.238;10.394;2023-05-16T04:07:29;5.60;;;1.60;;
3309;SDS011;1667;53.238;10.394;2023-05-16T04:12:28;1.53;;;1.43;;
3309;SDS011;1667;53.238;10.394;2023-05-16T04:17:27;1.63;;;1.53;;
3309;SDS011;1667;53.238;10.394;2023-05-16T04:22:26;4.33;;;2.20;;
3309;SDS011;1667;53.238;10.394;2023-05-16T04:27:24;3.70;;;1.70;;
3309;SDS011;1667;53.238;10.394;2023-05-16T04:32:24;7.77;;;2.17;;
3309;SDS011;1667;53.238;10.394;2023-05-16T04:37:24;5.47;;;1.60;;
3309;SDS011;1667;53.238;10.394;2023-05-16T04:42:23;7.23;;;2.30;;
3309;SDS011;1667;53.238;10.394;2023-05-16T04:47:22;10.63;;;2.13;;
3309;SDS011;1667;53.238;10.394;2023-05-16T04:52:22;5.97;;;1.50;;
3309;SDS011;1667;53.238;10.394;2023-05-16T04:57:21;8.43;;;1.63;;
3309;SDS011;1667;53.238;10.394;2023-05-16T05:02:19;5.30;;;2.10;;
3309;SDS011;1667;53.238;10.394;2023-05-16T05:07:17;8.93;;;2.03;;
3309;SDS011;1667;53.238;10.394;2023-05-16T05:12:17;5.57;;;1.20;;
3309;SDS011;1667;53.238;10.394;2023-05-16T05:17:16;6.70;;;1.70;;
3309;SDS011;1667;53.238;10.394;2023-05-16T05:22:14;10.73;;;2.30;;
3309;SDS011;1667;53.238;10.394;2023-05-16T05:27:13;9.73;;;1.60;;
3309;SDS011;1667;53.238;10.394;2023-05-16T05:32:13;5.40;;;1.80;;
3309;SDS011;1667;53.238;10.394;2023-05-16T05:37:11;19.70;;;2.53;;
3309;SDS011;1667;53.238;10.394;2023-05-16T05:42:10;7.70;;;1.60;;
3309;SDS011;1667;53.238;10.394;2023-05-16T05:47:09;6.90;;;1.57;;
3309;SDS011;1667;53.238;10.394;2023-05-16T05:52:09;7.23;;;1.90;;
3309;SDS011;1667;53.238;10.394;2023-05-16T05:57:08;10.90;;;1.80;;
3309;SDS011;1667;53.238;10.394;2023-05-16T06:02:07;11.07;;;2.17;;
3309;SDS011;1667;53.238;10.394;2023-05-16T06:07:05;6.73;;;1.33;;
3309;SDS011;1667;53.238;10.394;2023-05-16T06:12:06;9.27;;;1.70;;
3309;SDS011;1667;53.238;10.394;2023-05-16T06:17:04;5.90;;;0.93;;
3309;SDS011;1667;53.238;10.394;2023-05-16T06:22:04;4.97;;;1.10;;
3309;SDS011;1667;53.238;10.394;2023-05-16T06:27:02;5.00;;;1.10;;
3309;SDS011;1667;53.238;10.394;2023-05-16T06:32:02;8.53;;;1.30;;
3309;SDS011;1667;53.238;10.394;2023-05-16T06:37:01;3.23;;;1.43;;
3309;SDS011;1667;53.238;10.394;2023-05-16T06:42:00;8.50;;;1.67;;
3309;SDS011;1667;53.238;10.394;2023-05-16T06:47:00;3.77;;;1.50;;
3309;SDS011;1667;53.238;10.394;2023-05-16T06:52:01;2.50;;;1.10;;
3309;SDS011;1667;53.238;10.394;2023-05-16T06:56:59;2.30;;;1.27;;
3309;SDS011;1667;53.238;10.394;2023-05-16T07:01:59;6.00;;;1.70;;
3309;SDS011;1667;53.238;10.394;2023-05-16T07:06:59;4.47;;;1.40;;
3309;SDS011;1667;53.238;10.394;2023-05-16T07:11:57;10.00;;;1.20;;
3309;SDS011;1667;53.238;10.394;2023-05-16T07:16:55;3.73;;;1.40;;
3309;SDS011;1667;53.238;10.394;2023-05-16T07:21:54;6.80;;;1.93;;
3309;SDS011;1667;53.238;10.394;2023-05-16T07:26:54;10.33;;;1.63;;
3309;SDS011;1667;53.238;10.394;2023-05-16T07:31:53;6.70;;;1.37;;
3309;SDS011;1667;53.238;10.394;2023-05-16T07:36:51;4.07;;;1.77;;
3309;SDS011;1667;53.238;10.394;2023-05-16T07:41:50;3.23;;;1.50;;
3309;SDS011;1667;53.238;10.394;2023-05-16T07:46:50;6.07;;;1.50;;
3309;SDS011;1667;53.238;10.394;2023-05-16T07:51:48;3.60;;;1.20;;
3309;SDS011;1667;53.238;10.394;2023-05-16T07:56:47;4.37;;;1.53;;
3309;SDS011;1667;53.238;10.394;2023-05-16T08:01:45;3.43;;;1.00;;
3309;SDS011;1667;53.238;10.394;2023-05-16T08:06:45;10.17;;;1.40;;
3309;SDS011;1667;53.238;10.394;2023-05-16T08:11:43;8.20;;;1.40;;
3309;SDS011;1667;53.238;10.394;2023-05-16T08:16:42;4.47;;;1.30;;
3309;SDS011;1667;53.238;10.394;2023-05-16T08:21:41;4.10;;;1.10;;
3309;SDS011;1667;53.238;10.394;2023-05-16T08:26:40;1.73;;;1.10;;
3309;SDS011;1667;53.238;10.394;2023-05-16T08:31:39;1.20;;;0.90;;
3309;SDS011;1667;53.238;10.394;2023-05-16T08:36:37;7.10;;;1.13;;
3309;SDS011;1667;53.238;10.394;2023-05-16T08:41:36;1.73;;;0.90;;
3309;SDS011;1667;53.238;10.394;2023-05-16T08:46:36;3.47;;;1.50;;
3309;SDS011;1667;53.238;10.394;2023-05-16T08:51:36;2.00;;;0.77;;
3309;SDS011;1667;53.238;10.394;2023-05-16T08:56:35;3.50;;;1.20;;
3309;SDS011;1667;53.238;10.394;2023-05-16T09:01:36;2.03;;;1.07;;
3309;SDS011;1667;53.238;10.394;2023-05-16T09:06:35;4.93;;;0.83;;
3309;SDS011;1667;53.238;10.394;2023-05-16T09:11:33;8.03;;;1.37;;
3309;SDS011;1667;53.238;10.394;2023-05-16T09:16:32;5.23;;;1.60;;
3309;SDS011;1667;53.238;10.394;2023-05-16T09:21:33;2.73;;;0.90;;
3309;SDS011;1667;53.238;10.394;2023-05-16T09:26:32;3.53;;;0.90;;
3309;SDS011;1667;53.238;10.394;2023-05-16T09:31:32;3.27;;;0.90;;
3309;SDS011;1667;53.238;10.394;2023-05-16T09:36:35;3.63;;;1.40;;
3309;SDS011;1667;53.238;10.394;2023-05-16T09:41:35;3.80;;;0.90;;
3309;SDS011;1667;53.238;10.394;2023-05-16T09:46:34;2.83;;;1.53;;
3309;SDS011;1667;53.238;10.394;2023-05-16T09:51:35;3.90;;;1.07;;
3309;SDS011;1667;53.238;10.394;2023-05-16T09:56:38;1.60;;;1.20;;
3309;SDS011;1667;53.238;10.394;2023-05-16T10:01:45;5.43;;;1.23;;
3309;SDS011;1667;53.238;10.394;2023-05-16T10:06:47;1.47;;;1.37;;
3309;SDS011;1667;53.238;10.394;2023-05-16T10:11:49;5.80;;;1.67;;
3309;SDS011;1667;53.238;10.394;2023-05-16T10:16:49;2.43;;;0.77;;
3309;SDS011;1667;53.238;10.394;2023-05-16T10:21:52;2.40;;;1.03;;
3309;SDS011;1667;53.238;10.394;2023-05-16T10:26:55;2.80;;;1.27;;
3309;SDS011;1667;53.238;10.394;2023-05-16T10:31:54;2.70;;;1.20;;
3309;SDS011;1667;53.238;10.394;2023-05-16T10:36:54;2.40;;;1.10;;
3309;SDS011;1667;53.238;10.394;2023-05-16T10:41:53;1.67;;;0.80;;
3309;SDS011;1667;53.238;10.394;2023-05-16T10:46:53;3.20;;;1.20;;
3309;SDS011;1667;53.238;10.394;2023-05-16T10:52:03;0.73;;;0.60;;
3309;SDS011;1667;53.238;10.394;2023-05-16T10:57:03;1.37;;;0.90;;
3309;SDS011;1667;53.238;10.394;2023-05-16T11:02:02;2.00;;;1.30;;
3309;SDS011;1667;53.238;10.394;2023-05-16T11:07:19;1.63;;;0.80;;
3309;SDS011;1667;53.238;10.394;2023-05-16T11:12:19;7.47;;;1.40;;
3309;SDS011;1667;53.238;10.394;2023-05-16T11:17:19;3.60;;;1.10;;
3309;SDS011;1667;53.238;10.394;2023-05-16T11:22:24;3.80;;;1.77;;
3309;SDS011;1667;53.238;10.394;2023-05-16T11:27:24;2.47;;;1.33;;
3309;SDS011;1667;53.238;10.394;2023-05-16T11:32:24;2.70;;;1.00;;
3309;SDS011;1667;53.238;10.394;2023-05-16T11:37:24;1.43;;;0.87;;
3309;SDS011;1667;53.238;10.394;2023-05-16T11:42:22;4.97;;;1.47;;
3309;SDS011;1667;53.238;10.394;2023-05-16T11:47:21;1.70;;;0.80;;
3309;SDS011;1667;53.238;10.394;2023-05-16T11:52:21;4.60;;;1.00;;
3309;SDS011;1667;53.238;10.394;2023-05-16T11:57:21;4.30;;;1.73;;
3309;SDS011;1667;53.238;10.394;2023-05-16T12:02:20;5.40;;;1.73;;
3309;SDS011;1667;53.238;10.394;2023-05-16T12:07:19;6.50;;;1.27;;
3309;SDS011;1667;53.238;10.394;2023-05-16T12:12:19;6.43;;;1.57;;
3309;SDS011;1667;53.238;10.394;2023-05-16T12:17:19;2.67;;;1.33;;
3309;SDS011;1667;53.238;10.394;2023-05-16T12:22:18;2.63;;;1.43;;
3309;SDS011;1667;53.238;10.394;2023-05-16T12:27:20;4.67;;;1.20;;
3309;SDS011;1667;53.238;10.394;2023-05-16T12:32:20;3.17;;;1.00;;
3309;SDS011;1667;53.238;10.394;2023-05-16T12:37:21;3.37;;;1.33;;
3309;SDS011;1667;53.238;10.394;2023-05-16T12:42:19;2.03;;;0.80;;
3309;SDS011;1667;53.238;10.394;2023-05-16T12:47:18;4.03;;;1.10;;
3309;SDS011;1667;53.238;10.394;2023-05-16T12:52:18;1.77;;;1.10;;
3309;SDS011;1667;53.238;10.394;2023-05-16T12:57:17;2.40;;;1.07;;
3309;SDS011;1667;53.238;10.394;2023-05-16T13:02:16;1.47;;;0.93;;
3309;SDS011;1667;53.238;10.394;2023-05-16T13:07:15;2.87;;;1.23;;
3309;SDS011;1667;53.238;10.394;2023-05-16T13:12:15;1.87;;;0.83;;
3309;SDS011;1667;53.238;10.394;2023-05-16T13:17:14;1.27;;;1.00;;
3309;SDS011;1667;53.238;10.394;2023-05-16T13:22:12;0.77;;;0.77;;
3309;SDS011;1667;53.238;10.394;2023-05-16T13:27:14;2.90;;;0.80;;
3309;SDS011;1667;53.238;10.394;2023-05-16T13:32:14;0.70;;;0.60;;
3309;SDS011;1667;53.238;10.394;2023-05-16T13:37:13;0.60;;;0.60;;
3309;SDS011;1667;53.238;10.394;2023-05-16T13:42:11;1.43;;;0.80;;
3309;SDS011;1667;53.238;10.394;2023-05-16T13:47:12;1.60;;;0.90;;
3309;SDS011;1667;53.238;10.394;2023-05-16T13:52:10;5.60;;;1.33;;
3309;SDS011;1667;53.238;10.394;2023-05-16T13:57:11;1.87;;;1.10;;
3309;SDS011;1667;53.238;10.394;2023-05-16T14:02:11;3.20;;;1.10;;
3309;SDS011;1667;53.238;10.394;2023-05-16T14:07:10;3.50;;;1.30;;
3309;SDS011;1667;53.238;10.394;2023-05-16T14:12:09;2.37;;;1.17;;
3309;SDS011;1667;53.238;10.394;2023-05-16T14:17:07;1.80;;;1.10;;
3309;SDS011;1667;53.238;10.394;2023-05-16T14:22:07;1.40;;;1.10;;
3309;SDS011;1667;53.238;10.394;2023-05-16T14:27:06;1.27;;;0.83;;
3309;SDS011;1667;53.238;10.394;2023-05-16T14:32:04;0.70;;;0.63;;
3309;SDS011;1667;53.238;10.394;2023-05-16T14:37:04;1.23;;;0.77;;
3309;SDS011;1667;53.238;10.394;2023-05-16T14:42:04;3.43;;;1.30;;
3309;SDS011;1667;53.238;10.394;2023-05-16T14:47:04;1.60;;;1.00;;
3309;SDS011;1667;53.238;10.394;2023-05-16T14:52:03;4.00;;;0.90;;
3309;SDS011;1667;53.238;10.394;2023-05-16T14:57:04;3.43;;;0.83;;
3309;SDS011;1667;53.238;10.394;2023-05-16T15:02:03;1.97;;;0.70;;
3309;SDS011;1667;53.238;10.394;2023-05-16T15:07:02;1.53;;;0.90;;
3309;SDS011;1667;53.238;10.394;2023-05-16T15:12:01;0.97;;;0.70;;
3309;SDS011;1667;53.238;10.394;2023-05-16T15:17:01;2.00;;;0.70;;
3309;SDS011;1667;53.238;10.394;2023-05-16T15:22:03;1.53;;;0.80;;
3309;SDS011;1667;53.238;10.394;2023-05-16T15:27:03;1.53;;;0.90;;
3309;SDS011;1667;53.238;10.394;2023-05-16T15:32:03;1.53;;;0.80;;
3309;SDS011;1667;53.238;10.394;2023-05-16T15:37:03;1.20;;;0.73;;
3309;SDS011;1667;53.238;10.394;2023-05-16T15:42:02;1.57;;;0.87;;
3309;SDS011;1667;53.238;10.394;2023-05-16T15:47:06;0.80;;;0.70;;
3309;SDS011;1667;53.238;10.394;2023-05-16T15:52:05;0.70;;;0.63;;
3309;SDS011;1667;53.238;10.394;2023-05-16T15:57:04;2.10;;;1.00;;
3309;SDS011;1667;53.238;10.394;2023-05-16T16:02:03;1.43;;;0.80;;
3309;SDS011;1667;53.238;10.394;2023-05-16T16:07:03;0.90;;;0.77;;
3309;SDS011;1667;53.238;10.394;2023-05-16T16:12:02;3.50;;;1.00;;
3309;SDS011;1667;53.238;10.394;2023-05-16T16:17:01;2.43;;;0.80;;
3309;SDS011;1667;53.238;10.394;2023-05-16T16:22:04;2.93;;;0.90;;
3309;SDS011;1667;53.238;10.394;2023-05-16T16:27:03;1.87;;;0.93;;
3309;SDS011;1667;53.238;10.394;2023-05-16T16:32:01;2.50;;;1.00;;
3309;SDS011;1667;53.238;10.394;2023-05-16T16:36:59;5.00;;;0.93;;
3309;SDS011;1667;53.238;10.394;2023-05-16T16:41:59;6.97;;;1.40;;
3309;SDS011;1667;53.238;10.394;2023-05-16T16:46:58;3.57;;;1.00;;
3309;SDS011;1667;53.238;10.394;2023-05-16T16:51:57;4.23;;;1.30;;
3309;SDS011;1667;53.238;10.394;2023-05-16T16:56:55;6.13;;;1.20;;
3309;SDS011;1667;53.238;10.394;2023-05-16T17:01:55;4.20;;;1.33;;
3309;SDS011;1667;53.238;10.394;2023-05-16T17:06:54;3.23;;;1.17;;
3309;SDS011;1667;53.238;10.394;2023-05-16T17:11:53;3.33;;;1.10;;
3309;SDS011;1667;53.238;10.394;2023-05-16T17:16:51;2.73;;;1.47;;
3309;SDS011;1667;53.238;10.394;2023-05-16T17:21:52;2.33;;;1.43;;
3309;SDS011;1667;53.238;10.394;2023-05-16T17:26:50;2.40;;;1.40;;
3309;SDS011;1667;53.238;10.394;2023-05-16T17:31:49;2.53;;;1.50;;
3309;SDS011;1667;53.238;10.394;2023-05-16T17:42:38;5.50;;;1.77;;
3309;SDS011;1667;53.238;10.394;2023-05-16T17:47:37;3.93;;;1.80;;
3309;SDS011;1667;53.238;10.394;2023-05-16T17:52:35;2.60;;;1.83;;
3309;SDS011;1667;53.238;10.394;2023-05-16T17:57:36;4.10;;;1.60;;
3309;SDS011;1667;53.238;10.394;2023-05-16T18:02:36;6.10;;;1.80;;
3309;SDS011;1667;53.238;10.394;2023-05-16T18:07:35;3.67;;;1.90;;
3309;SDS011;1667;53.238;10.394;2023-05-16T18:12:34;4.90;;;1.50;;
3309;SDS011;1667;53.238;10.394;2023-05-16T18:17:35;2.47;;;1.57;;
3309;SDS011;1667;53.238;10.394;2023-05-16T18:22:34;2.87;;;1.73;;
3309;SDS011;1667;53.238;10.394;2023-05-16T18:27:33;1.60;;;1.40;;
3309;SDS011;1667;53.238;10.394;2023-05-16T18:32:32;3.37;;;1.97;;
3309;SDS011;1667;53.238;10.394;2023-05-16T18:37:33;3.20;;;1.83;;
3309;SDS011;1667;53.238;10.394;2023-05-16T18:42:32;4.70;;;1.70;;
3309;SDS011;1667;53.238;10.394;2023-05-16T18:47:30;2.50;;;1.70;;
3309;SDS011;1667;53.238;10.394;2023-05-16T18:52:29;3.10;;;1.70;;
3309;SDS011;1667;53.238;10.394;2023-05-16T18:57:32;4.30;;;1.77;;
3309;SDS011;1667;53.238;10.394;2023-05-16T19:02:30;1.40;;;1.30;;
3309;SDS011;1667;53.238;10.394;2023-05-16T19:07:38;1.60;;;1.50;;
3309;SDS011;1667;53.238;10.394;2023-05-16T19:12:38;2.50;;;1.30;;
3309;SDS011;1667;53.238;10.394;2023-05-16T19:17:37;3.33;;;2.57;;
3309;SDS011;1667;53.238;10.394;2023-05-16T19:22:37;7.93;;;2.17;;
3309;SDS011;1667;53.238;10.394;2023-05-16T19:27:36;2.03;;;1.40;;
3309;SDS011;1667;53.238;10.394;2023-05-16T19:32:35;4.43;;;1.90;;
3309;SDS011;1667;53.238;10.394;2023-05-16T19:37:34;4.47;;;1.90;;
3309;SDS011;1667;53.238;10.394;2023-05-16T19:42:33;3.33;;;1.50;;
3309;SDS011;1667;53.238;10.394;2023-05-16T19:47:31;3.30;;;1.67;;
3309;SDS011;1667;53.238;10.394;2023-05-16T19:52:33;9.97;;;2.27;;
3309;SDS011;1667;53.238;10.394;2023-05-16T19:57:32;6.67;;;2.57;;
3309;SDS011;1667;53.238;10.394;2023-05-16T20:02:31;5.17;;;1.90;;
3309;SDS011;1667;53.238;10.394;2023-05-16T20:07:30;9.30;;;2.30;;
3309;SDS011;1667;53.238;10.394;2023-05-16T20:12:30;6.97;;;2.63;;
3309;SDS011;1667;53.238;10.394;2023-05-16T20:17:28;5.43;;;2.33;;
3309;SDS011;1667;53.238;10.394;2023-05-16T20:22:27;4.10;;;1.70;;
3309;SDS011;1667;53.238;10.394;2023-05-16T20:27:27;10.43;;;2.70;;
3309;SDS011;1667;53.238;10.394;2023-05-16T20:32:27;6.20;;;2.80;;
3309;SDS011;1667;53.238;10.394;2023-05-16T20:37:26;4.13;;;2.00;;
3309;SDS011;1667;53.238;10.394;2023-05-16T20:42:24;7.43;;;2.70;;
3309;SDS011;1667;53.238;10.394;2023-05-16T20:47:24;4.30;;;2.57;;
3309;SDS011;1667;53.238;10.394;2023-05-16T20:52:23;5.20;;;2.83;;
3309;SDS011;1667;53.238;10.394;2023-05-16T20:57:23;8.63;;;3.17;;
3309;SDS011;1667;53.238;10.394;2023-05-16T21:02:21;9.83;;;3.83;;
3309;SDS011;1667;53.238;10.394;2023-05-16T21:07:21;9.50;;;3.70;;
3309;SDS011;1667;53.238;10.394;2023-05-16T21:12:20;10.57;;;3.20;;
3309;SDS011;1667;53.238;10.394;2023-05-16T21:17:18;6.20;;;2.50;;
3309;SDS011;1667;53.238;10.394;2023-05-16T21:22:17;5.30;;;2.13;;
3309;SDS011;1667;53.238;10.394;2023-05-16T21:27:16;6.33;;;3.17;;
3309;SDS011;1667;53.238;10.394;2023-05-16T21:32:15;6.53;;;2.97;;
3309;SDS011;1667;53.238;10.394;2023-05-16T21:37:13;6.90;;;2.90;;
3309;SDS011;1667;53.238;10.394;2023-05-16T21:42:12;5.73;;;2.67;;
3309;SDS011;1667;53.238;10.394;2023-05-16T21:47:12;9.20;;;3.00;;
3309;SDS011;1667;53.238;10.394;2023-05-16T21:52:10;7.40;;;2.60;;
3309;SDS011;1667;53.238;10.394;2023-05-16T21:57:09;3.80;;;2.70;;
3309;SDS011;1667;53.238;10.394;2023-05-16T22:02:08;5.17;;;2.10;;
3309;SDS011;1667;53.238;10.394;2023-05-16T22:07:08;3.33;;;2.07;;
3309;SDS011;1667;53.238;10.394;2023-05-16T22:12:06;7.93;;;3.17;;
3309;SDS011;1667;53.238;10.394;2023-05-16T22:17:05;5.40;;;2.13;;
3309;SDS011;1667;53.238;10.394;2023-05-16T22:22:04;5.50;;;2.20;;
3309;SDS011;1667;53.238;10.394;2023-05-16T22:27:04;3.60;;;2.60;;
3309;SDS011;1667;53.238;10.394;2023-05-16T22:32:04;4.63;;;1.90;;
3309;SDS011;1667;53.238;10.394;2023-05-16T22:37:03;5.20;;;2.80;;
3309;SDS011;1667;53.238;10.394;2023-05-16T22:42:03;8.73;;;2.43;;
3309;SDS011;1667;53.238;10.394;2023-05-16T22:47:02;8.33;;;2.50;;
3309;SDS011;1667;53.238;10.394;2023-05-16T22:52:01;14.53;;;2.57;;
3309;SDS011;1667;53.238;10.394;2023-05-16T22:57:00;6.30;;;2.93;;
3309;SDS011;1667;53.238;10.394;2023-05-16T23:02:00;4.83;;;2.33;;
3309;SDS011;1667;53.238;10.394;2023-05-16T23:06:58;7.70;;;2.40;;
3309;SDS011;1667;53.238;10.394;2023-05-16T23:11:57;12.73;;;3.13;;
3309;SDS011;1667;53.238;10.394;2023-05-16T23:16:55;9.00;;;3.00;;
3309;SDS011;1667;53.238;10.394;2023-05-16T23:21:55;4.50;;;2.60;;
3309;SDS011;1667;53.238;10.394;2023-05-16T23:26:53;7.20;;;2.70;;
3309;SDS011;1667;53.238;10.394;2023-05-16T23:31:52;13.70;;;2.40;;
3309;SDS011;1667;53.238;10.394;2023-05-16T23:36:51;4.70;;;2.57;;
3309;SDS011;1667;53.238;10.394;2023-05-16T23:41:50;4.27;;;2.60;;
3309;SDS011;1667;53.238;10.394;2023-05-16T23:46:49;7.70;;;3.00;;
3309;SDS011;1667;53.238;10.394;2023-05-16T23:51:47;8.73;;;2.60;;
3309;SDS011;1667;53.238;10.394;2023-05-16T23:56:50;6.67;;;2.83;;
